ハバロフスク の空港の天気 - METARとTAF

ハバロフスク空港 ( UHHH / KHV ) - ロシア ハバロフスク
飛行場実況気象(Metar)
観測時間10/16 16:30 VLAT (10/16 06:30 UTC)
風向・風速北北西 3m/s
視程10km以上
天気現象弱いしゅう雨
全天の4割程度の雲 雲底高度 300m
全天の8割程度の雲 雲底高度 940m
気温4℃
湿度87%
気圧1013hPa
METARUHHH 160630Z 33003MPS 300V360 9999 -SHRA SCT010 BKN031CB 04/02 Q1013 R05R/190050 NOSIG RMK QFE754/1005
過去の天気等 Google飛行場航空写真 Wunderground天気予報

過去48時間のMETAR

飛行場予報(TAF)
発表時間: 10/16 14:59 VLAT (10/16 04:59 UTC)
予報対象時間: 16日16時 VLAT ~ 17日22時 VLAT
風向・風速北北西 5m/s
視程5000m
天気現象弱いしゅう雨
全天の4割程度の雲 雲底高度 300m
全天の8割程度の積乱雲 雲底高度 460m
16日16時 VLAT ~ 17日1時 VLAT に一時的に
風向・風速北北西 7m/s 瞬間風速 12m/s
視程2000m
天気現象しゅう雨雪
全天の8割程度の雲 雲底高度 180m
全天の8割程度の積乱雲 雲底高度 300m
17日4時 VLAT から
風向・風速北 3m/s
視程10km以上
全天の4割程度の雲 雲底高度 180m
全天の8割程度の積乱雲 雲底高度 610m
TAF UHHH 160459Z 1606/1712 33005MPS 5000 -SHRA SCT010 BKN015CB
TEMPO 1606/1615 34007G12MPS 2000 SHRASN BKN006 BKN010CB
FM161800 36003MPS 9999 SCT006 BKN020CB